Flugplatz Niederrhein

Bericht für EDLV

vom 25.01. um 22:50 UTC

variable Windrichtung mit 2 kt

Sichtweite 600 m

Nebel

Temperatur 2.0°C

Taupunkt 1.0°C

Luftfeuchtigkeit 93%

Luftdruck 1019 hPa

EDLV 252250Z VRB02KT 0600 R27/0750N FG VV/// 02/01 Q1019

Prognose für EDLV

vom 25.01. um 00:00 UTC

Am 25.01. zwischen 00:00 UTC und 00:00 UTC

variable Windrichtung mit 2 kt

Sichtweite 400 m

Nebel

bedeckt


Am 25.01. zwischen 00:00 UTC und 00:00 UTC zeitweise

Sichtweite 2500 m

feuchter Dunst

aufgebrochene Bewölkung in 300 ft


Zwischen 00:00 und 00:00 UTC übergehend zu

Wind 7 kt aus 160°

Sichtweite 400 m

Nebel

aufgebrochene Bewölkung in 700 ft


Zwischen 00:00 und 00:00 UTC übergehend zu

Wind 7 kt aus 160°

Sichtweite 400 m

Nebel

aufgebrochene Bewölkung in 1200 ft


Zwischen 00:00 und 00:00 UTC übergehend zu

Wind 7 kt aus 160°

Sichtweite 10 km oder mehr

Nebel

aufgelockert bewölkt in 4500 ft

TAF AMD EDLV 251855Z 2518/2618 VRB02KT 0400 FG OVC000 TEMPO 2519/2601 2500 BR BKN003 BECMG 2601/2604 16007KT BKN007 BECMG 2604/2607 BKN012 BECMG 2609/2612 9999 SCT045
Impressum